sensor_id;sensor_type;location;lat;lon;timestamp;temperature;humidity
32366;DHT22;18837;46.832;16.838;2023-05-10T00:01:25;14.90;80.20
32366;DHT22;18837;46.832;16.838;2023-05-10T00:03:51;14.90;80.50
32366;DHT22;18837;46.832;16.838;2023-05-10T00:06:17;14.90;80.40
32366;DHT22;18837;46.832;16.838;2023-05-10T00:08:44;14.90;80.50
32366;DHT22;18837;46.832;16.838;2023-05-10T00:11:10;14.80;80.60
32366;DHT22;18837;46.832;16.838;2023-05-10T00:13:41;14.90;80.30
32366;DHT22;18837;46.832;16.838;2023-05-10T00:16:07;14.80;80.40
32366;DHT22;18837;46.832;16.838;2023-05-10T00:18:36;14.90;80.70
32366;DHT22;18837;46.832;16.838;2023-05-10T00:21:01;14.80;80.50
32366;DHT22;18837;46.832;16.838;2023-05-10T00:23:27;14.80;80.90
32366;DHT22;18837;46.832;16.838;2023-05-10T00:25:53;14.80;80.70
32366;DHT22;18837;46.832;16.838;2023-05-10T00:28:18;14.80;80.50
32366;DHT22;18837;46.832;16.838;2023-05-10T00:30:44;14.80;80.70
32366;DHT22;18837;46.832;16.838;2023-05-10T00:33:13;14.80;80.60
32366;DHT22;18837;46.832;16.838;2023-05-10T00:35:39;14.80;80.60
32366;DHT22;18837;46.832;16.838;2023-05-10T00:38:04;14.70;80.30
32366;DHT22;18837;46.832;16.838;2023-05-10T00:40:30;14.70;80.70
32366;DHT22;18837;46.832;16.838;2023-05-10T00:42:56;14.70;80.70
32366;DHT22;18837;46.832;16.838;2023-05-10T00:45:23;14.70;80.80
32366;DHT22;18837;46.832;16.838;2023-05-10T00:47:49;14.70;80.60
32366;DHT22;18837;46.832;16.838;2023-05-10T00:50:18;14.70;80.80
32366;DHT22;18837;46.832;16.838;2023-05-10T00:52:43;14.60;80.80
32366;DHT22;18837;46.832;16.838;2023-05-10T00:55:10;14.70;80.80
32366;DHT22;18837;46.832;16.838;2023-05-10T00:57:36;14.60;80.90
32366;DHT22;18837;46.832;16.838;2023-05-10T01:00:03;14.60;80.40
32366;DHT22;18837;46.832;16.838;2023-05-10T01:02:29;14.60;80.80
32366;DHT22;18837;46.832;16.838;2023-05-10T01:04:55;14.60;80.70
32366;DHT22;18837;46.832;16.838;2023-05-10T01:07:21;14.60;81.10
32366;DHT22;18837;46.832;16.838;2023-05-10T01:09:47;14.60;80.90
32366;DHT22;18837;46.832;16.838;2023-05-10T01:12:13;14.50;80.80
32366;DHT22;18837;46.832;16.838;2023-05-10T01:14:39;14.50;81.00
32366;DHT22;18837;46.832;16.838;2023-05-10T01:17:06;14.50;80.80
32366;DHT22;18837;46.832;16.838;2023-05-10T01:19:34;14.50;81.20
32366;DHT22;18837;46.832;16.838;2023-05-10T01:34:16;14.40;80.00
32366;DHT22;18837;46.832;16.838;2023-05-10T01:36:51;14.40;80.50
32366;DHT22;18837;46.832;16.838;2023-05-10T01:39:28;14.40;80.40
32366;DHT22;18837;46.832;16.838;2023-05-10T01:47:42;14.30;80.10
32366;DHT22;18837;46.832;16.838;2023-05-10T01:50:29;14.30;80.40
32366;DHT22;18837;46.832;16.838;2023-05-10T01:52:57;14.30;81.20
32366;DHT22;18837;46.832;16.838;2023-05-10T01:55:27;14.30;81.20
32366;DHT22;18837;46.832;16.838;2023-05-10T01:58:01;14.30;81.70
32366;DHT22;18837;46.832;16.838;2023-05-10T02:00:31;14.30;81.60
32366;DHT22;18837;46.832;16.838;2023-05-10T02:02:57;14.30;81.60
32366;DHT22;18837;46.832;16.838;2023-05-10T02:05:24;14.20;81.60
32366;DHT22;18837;46.832;16.838;2023-05-10T02:07:51;14.20;81.40
32366;DHT22;18837;46.832;16.838;2023-05-10T02:10:18;14.20;81.50
32366;DHT22;18837;46.832;16.838;2023-05-10T02:12:47;14.20;81.40
32366;DHT22;18837;46.832;16.838;2023-05-10T02:15:20;14.20;81.60
32366;DHT22;18837;46.832;16.838;2023-05-10T02:17:47;14.20;81.80
32366;DHT22;18837;46.832;16.838;2023-05-10T02:20:13;14.10;81.40
32366;DHT22;18837;46.832;16.838;2023-05-10T02:22:41;14.10;81.60
32366;DHT22;18837;46.832;16.838;2023-05-10T02:25:08;14.10;81.60
32366;DHT22;18837;46.832;16.838;2023-05-10T02:27:36;14.10;81.70
32366;DHT22;18837;46.832;16.838;2023-05-10T02:30:03;14.10;81.70
32366;DHT22;18837;46.832;16.838;2023-05-10T02:32:30;14.10;81.20
32366;DHT22;18837;46.832;16.838;2023-05-10T02:34:59;14.10;81.70
32366;DHT22;18837;46.832;16.838;2023-05-10T02:37:26;14.10;81.50
32366;DHT22;18837;46.832;16.838;2023-05-10T02:39:54;14.10;81.60
32366;DHT22;18837;46.832;16.838;2023-05-10T02:42:24;14.00;81.60
32366;DHT22;18837;46.832;16.838;2023-05-10T02:44:53;14.00;81.80
32366;DHT22;18837;46.832;16.838;2023-05-10T02:47:20;14.00;81.80
32366;DHT22;18837;46.832;16.838;2023-05-10T02:49:46;14.00;81.30
32366;DHT22;18837;46.832;16.838;2023-05-10T02:52:23;14.00;81.70
32366;DHT22;18837;46.832;16.838;2023-05-10T02:54:54;14.00;81.60
32366;DHT22;18837;46.832;16.838;2023-05-10T02:57:27;14.00;81.90
32366;DHT22;18837;46.832;16.838;2023-05-10T02:59:54;14.00;81.10
32366;DHT22;18837;46.832;16.838;2023-05-10T03:02:20;13.90;82.00
32366;DHT22;18837;46.832;16.838;2023-05-10T03:04:46;13.90;81.90
32366;DHT22;18837;46.832;16.838;2023-05-10T03:07:13;13.90;81.60
32366;DHT22;18837;46.832;16.838;2023-05-10T03:09:41;13.90;81.80
32366;DHT22;18837;46.832;16.838;2023-05-10T03:15:03;13.90;80.90
32366;DHT22;18837;46.832;16.838;2023-05-10T03:17:31;13.90;80.90
32366;DHT22;18837;46.832;16.838;2023-05-10T03:20:08;13.80;82.00
32366;DHT22;18837;46.832;16.838;2023-05-10T03:22:47;13.80;81.60
32366;DHT22;18837;46.832;16.838;2023-05-10T03:25:16;13.80;82.00
32366;DHT22;18837;46.832;16.838;2023-05-10T03:27:43;13.80;82.80
32366;DHT22;18837;46.832;16.838;2023-05-10T03:30:11;13.80;82.10
32366;DHT22;18837;46.832;16.838;2023-05-10T03:32:38;13.80;82.10
32366;DHT22;18837;46.832;16.838;2023-05-10T03:35:11;13.70;81.70
32366;DHT22;18837;46.832;16.838;2023-05-10T03:37:38;13.70;82.10
32366;DHT22;18837;46.832;16.838;2023-05-10T03:40:05;13.70;82.30
32366;DHT22;18837;46.832;16.838;2023-05-10T03:42:31;13.70;81.20
32366;DHT22;18837;46.832;16.838;2023-05-10T03:45:02;13.70;81.70
32366;DHT22;18837;46.832;16.838;2023-05-10T03:47:28;13.70;81.90
32366;DHT22;18837;46.832;16.838;2023-05-10T03:49:55;13.70;82.20
32366;DHT22;18837;46.832;16.838;2023-05-10T03:52:21;13.70;82.00
32366;DHT22;18837;46.832;16.838;2023-05-10T03:54:46;13.70;81.90
32366;DHT22;18837;46.832;16.838;2023-05-10T03:57:12;13.70;82.30
32366;DHT22;18837;46.832;16.838;2023-05-10T03:59:38;13.60;82.10
32366;DHT22;18837;46.832;16.838;2023-05-10T04:02:03;13.60;82.20
32366;DHT22;18837;46.832;16.838;2023-05-10T04:04:29;13.60;82.40
32366;DHT22;18837;46.832;16.838;2023-05-10T04:06:55;13.60;82.20
32366;DHT22;18837;46.832;16.838;2023-05-10T04:09:20;13.60;82.00
32366;DHT22;18837;46.832;16.838;2023-05-10T04:11:46;13.60;81.90
32366;DHT22;18837;46.832;16.838;2023-05-10T04:14:12;13.60;82.10
32366;DHT22;18837;46.832;16.838;2023-05-10T04:16:40;13.60;82.20
32366;DHT22;18837;46.832;16.838;2023-05-10T04:19:07;13.60;82.30
32366;DHT22;18837;46.832;16.838;2023-05-10T04:21:33;13.60;82.20
32366;DHT22;18837;46.832;16.838;2023-05-10T04:23:59;13.60;82.20
32366;DHT22;18837;46.832;16.838;2023-05-10T04:26:25;13.60;82.40
32366;DHT22;18837;46.832;16.838;2023-05-10T04:28:51;13.60;82.40
32366;DHT22;18837;46.832;16.838;2023-05-10T04:31:16;13.60;82.40
32366;DHT22;18837;46.832;16.838;2023-05-10T04:33:42;13.60;82.20
32366;DHT22;18837;46.832;16.838;2023-05-10T04:36:08;13.60;82.00
32366;DHT22;18837;46.832;16.838;2023-05-10T04:38:34;13.60;82.30
32366;DHT22;18837;46.832;16.838;2023-05-10T04:41:10;13.50;82.50
32366;DHT22;18837;46.832;16.838;2023-05-10T04:43:37;13.60;82.70
32366;DHT22;18837;46.832;16.838;2023-05-10T04:46:04;13.50;82.50
32366;DHT22;18837;46.832;16.838;2023-05-10T04:48:30;13.50;82.50
32366;DHT22;18837;46.832;16.838;2023-05-10T04:51:01;13.50;82.50
32366;DHT22;18837;46.832;16.838;2023-05-10T04:53:30;13.50;82.60
32366;DHT22;18837;46.832;16.838;2023-05-10T04:55:56;13.50;82.50
32366;DHT22;18837;46.832;16.838;2023-05-10T04:58:22;13.50;82.90
32366;DHT22;18837;46.832;16.838;2023-05-10T05:00:47;13.50;82.70
32366;DHT22;18837;46.832;16.838;2023-05-10T05:03:13;13.50;82.90
32366;DHT22;18837;46.832;16.838;2023-05-10T05:05:39;13.50;82.60
32366;DHT22;18837;46.832;16.838;2023-05-10T05:08:05;13.50;82.80
32366;DHT22;18837;46.832;16.838;2023-05-10T05:10:30;13.50;82.90
32366;DHT22;18837;46.832;16.838;2023-05-10T05:12:56;13.50;82.90
32366;DHT22;18837;46.832;16.838;2023-05-10T05:15:22;13.50;83.00
32366;DHT22;18837;46.832;16.838;2023-05-10T05:17:47;13.50;83.30
32366;DHT22;18837;46.832;16.838;2023-05-10T05:20:13;13.60;82.90
32366;DHT22;18837;46.832;16.838;2023-05-10T05:22:39;13.50;83.10
32366;DHT22;18837;46.832;16.838;2023-05-10T05:25:07;13.50;83.10
32366;DHT22;18837;46.832;16.838;2023-05-10T05:27:34;13.50;83.10
32366;DHT22;18837;46.832;16.838;2023-05-10T05:30:00;13.50;83.00
32366;DHT22;18837;46.832;16.838;2023-05-10T05:32:26;13.50;83.50
32366;DHT22;18837;46.832;16.838;2023-05-10T05:34:51;13.50;83.00
32366;DHT22;18837;46.832;16.838;2023-05-10T05:37:19;13.50;83.40
32366;DHT22;18837;46.832;16.838;2023-05-10T05:39:45;13.50;83.70
32366;DHT22;18837;46.832;16.838;2023-05-10T05:42:12;13.60;84.40
32366;DHT22;18837;46.832;16.838;2023-05-10T05:44:39;13.60;84.30
32366;DHT22;18837;46.832;16.838;2023-05-10T05:47:05;13.60;84.20
32366;DHT22;18837;46.832;16.838;2023-05-10T05:49:31;13.50;84.00
32366;DHT22;18837;46.832;16.838;2023-05-10T05:52:04;13.60;84.10
32366;DHT22;18837;46.832;16.838;2023-05-10T05:54:30;13.60;83.60
32366;DHT22;18837;46.832;16.838;2023-05-10T05:56:57;13.50;83.80
32366;DHT22;18837;46.832;16.838;2023-05-10T05:59:36;13.60;84.10
32366;DHT22;18837;46.832;16.838;2023-05-10T06:02:02;13.60;83.90
32366;DHT22;18837;46.832;16.838;2023-05-10T06:04:33;13.50;84.40
32366;DHT22;18837;46.832;16.838;2023-05-10T06:06:59;13.50;84.10
32366;DHT22;18837;46.832;16.838;2023-05-10T06:09:24;13.50;84.30
32366;DHT22;18837;46.832;16.838;2023-05-10T06:11:50;13.60;84.20
32366;DHT22;18837;46.832;16.838;2023-05-10T06:14:16;13.50;84.30
32366;DHT22;18837;46.832;16.838;2023-05-10T06:16:42;13.60;84.40
32366;DHT22;18837;46.832;16.838;2023-05-10T06:19:07;13.60;85.00
32366;DHT22;18837;46.832;16.838;2023-05-10T06:21:33;13.60;84.70
32366;DHT22;18837;46.832;16.838;2023-05-10T06:23:59;13.50;84.80
32366;DHT22;18837;46.832;16.838;2023-05-10T06:26:25;13.50;84.50
32366;DHT22;18837;46.832;16.838;2023-05-10T06:28:50;13.60;84.70
32366;DHT22;18837;46.832;16.838;2023-05-10T06:31:16;13.50;84.60
32366;DHT22;18837;46.832;16.838;2023-05-10T06:33:42;13.60;84.50
32366;DHT22;18837;46.832;16.838;2023-05-10T06:36:32;13.60;84.50
32366;DHT22;18837;46.832;16.838;2023-05-10T06:38:58;13.50;83.90
32366;DHT22;18837;46.832;16.838;2023-05-10T06:41:24;13.50;84.00
32366;DHT22;18837;46.832;16.838;2023-05-10T06:43:49;13.60;84.70
32366;DHT22;18837;46.832;16.838;2023-05-10T06:46:15;13.50;84.50
32366;DHT22;18837;46.832;16.838;2023-05-10T06:48:41;13.50;84.60
32366;DHT22;18837;46.832;16.838;2023-05-10T06:51:06;13.60;84.70
32366;DHT22;18837;46.832;16.838;2023-05-10T06:53:32;13.60;84.50
32366;DHT22;18837;46.832;16.838;2023-05-10T06:55:58;13.60;83.90
32366;DHT22;18837;46.832;16.838;2023-05-10T06:58:24;13.60;84.00
32366;DHT22;18837;46.832;16.838;2023-05-10T07:00:50;13.60;84.80
32366;DHT22;18837;46.832;16.838;2023-05-10T07:03:16;13.60;85.00
32366;DHT22;18837;46.832;16.838;2023-05-10T07:05:42;13.60;84.70
32366;DHT22;18837;46.832;16.838;2023-05-10T07:08:14;13.60;84.80
32366;DHT22;18837;46.832;16.838;2023-05-10T07:11:03;13.60;84.10
32366;DHT22;18837;46.832;16.838;2023-05-10T07:13:34;13.60;84.80
32366;DHT22;18837;46.832;16.838;2023-05-10T07:16:01;13.60;84.50
32366;DHT22;18837;46.832;16.838;2023-05-10T07:18:30;13.70;84.70
32366;DHT22;18837;46.832;16.838;2023-05-10T07:20:56;13.70;84.00
32366;DHT22;18837;46.832;16.838;2023-05-10T07:23:22;13.70;84.00
32366;DHT22;18837;46.832;16.838;2023-05-10T07:25:49;13.70;84.00
32366;DHT22;18837;46.832;16.838;2023-05-10T07:28:22;13.80;84.10
32366;DHT22;18837;46.832;16.838;2023-05-10T07:30:47;13.80;84.00
32366;DHT22;18837;46.832;16.838;2023-05-10T07:33:14;13.90;83.60
32366;DHT22;18837;46.832;16.838;2023-05-10T07:35:40;13.90;83.60
32366;DHT22;18837;46.832;16.838;2023-05-10T07:38:06;13.90;83.60
32366;DHT22;18837;46.832;16.838;2023-05-10T07:40:31;14.00;83.90
32366;DHT22;18837;46.832;16.838;2023-05-10T07:43:03;14.10;83.60
32366;DHT22;18837;46.832;16.838;2023-05-10T07:45:33;14.10;83.30
32366;DHT22;18837;46.832;16.838;2023-05-10T07:48:01;14.20;83.30
32366;DHT22;18837;46.832;16.838;2023-05-10T07:50:26;14.20;83.00
32366;DHT22;18837;46.832;16.838;2023-05-10T07:52:52;14.20;83.00
32366;DHT22;18837;46.832;16.838;2023-05-10T07:55:18;14.30;82.90
32366;DHT22;18837;46.832;16.838;2023-05-10T07:57:45;14.30;82.90
32366;DHT22;18837;46.832;16.838;2023-05-10T08:00:12;14.40;83.20
32366;DHT22;18837;46.832;16.838;2023-05-10T08:02:44;14.40;83.10
32366;DHT22;18837;46.832;16.838;2023-05-10T08:05:09;14.50;83.60
32366;DHT22;18837;46.832;16.838;2023-05-10T08:07:35;14.50;84.20
32366;DHT22;18837;46.832;16.838;2023-05-10T08:10:02;14.50;84.40
32366;DHT22;18837;46.832;16.838;2023-05-10T08:12:28;14.60;85.10
32366;DHT22;18837;46.832;16.838;2023-05-10T08:14:54;14.60;85.40
32366;DHT22;18837;46.832;16.838;2023-05-10T08:17:38;14.70;86.00
32366;DHT22;18837;46.832;16.838;2023-05-10T08:20:15;14.70;86.10
32366;DHT22;18837;46.832;16.838;2023-05-10T08:22:56;14.70;85.60
32366;DHT22;18837;46.832;16.838;2023-05-10T08:25:21;14.80;85.60
32366;DHT22;18837;46.832;16.838;2023-05-10T08:27:47;14.80;85.80
32366;DHT22;18837;46.832;16.838;2023-05-10T08:30:13;14.80;86.40
32366;DHT22;18837;46.832;16.838;2023-05-10T08:32:39;14.90;86.20
32366;DHT22;18837;46.832;16.838;2023-05-10T08:35:05;14.90;85.60
32366;DHT22;18837;46.832;16.838;2023-05-10T08:37:35;14.90;85.70
32366;DHT22;18837;46.832;16.838;2023-05-10T08:40:01;15.00;86.20
32366;DHT22;18837;46.832;16.838;2023-05-10T08:42:30;15.00;86.40
32366;DHT22;18837;46.832;16.838;2023-05-10T08:44:57;15.00;86.50
32366;DHT22;18837;46.832;16.838;2023-05-10T08:47:23;15.10;86.30
32366;DHT22;18837;46.832;16.838;2023-05-10T08:49:49;15.10;87.30
32366;DHT22;18837;46.832;16.838;2023-05-10T08:52:40;15.10;86.40
32366;DHT22;18837;46.832;16.838;2023-05-10T08:55:28;15.20;86.90
32366;DHT22;18837;46.832;16.838;2023-05-10T08:57:55;15.20;87.90
32366;DHT22;18837;46.832;16.838;2023-05-10T09:00:21;15.30;88.00
32366;DHT22;18837;46.832;16.838;2023-05-10T09:02:49;15.30;88.00
32366;DHT22;18837;46.832;16.838;2023-05-10T09:05:15;15.40;87.60
32366;DHT22;18837;46.832;16.838;2023-05-10T09:07:43;15.40;88.40
32366;DHT22;18837;46.832;16.838;2023-05-10T09:10:09;15.50;88.00
32366;DHT22;18837;46.832;16.838;2023-05-10T09:12:36;15.50;86.60
32366;DHT22;18837;46.832;16.838;2023-05-10T09:15:04;15.50;85.40
32366;DHT22;18837;46.832;16.838;2023-05-10T09:17:31;15.60;86.60
32366;DHT22;18837;46.832;16.838;2023-05-10T09:20:01;15.70;87.80
32366;DHT22;18837;46.832;16.838;2023-05-10T09:22:28;15.70;90.20
32366;DHT22;18837;46.832;16.838;2023-05-10T09:25:06;15.80;90.30
32366;DHT22;18837;46.832;16.838;2023-05-10T09:27:51;15.90;90.40
32366;DHT22;18837;46.832;16.838;2023-05-10T09:30:26;16.00;90.40
32366;DHT22;18837;46.832;16.838;2023-05-10T09:32:53;16.00;90.10
32366;DHT22;18837;46.832;16.838;2023-05-10T09:35:21;16.10;90.80
32366;DHT22;18837;46.832;16.838;2023-05-10T09:37:52;16.30;87.50
32366;DHT22;18837;46.832;16.838;2023-05-10T09:40:21;16.40;86.60
32366;DHT22;18837;46.832;16.838;2023-05-10T09:43:01;16.50;86.50
32366;DHT22;18837;46.832;16.838;2023-05-10T09:46:11;16.60;83.90
32366;DHT22;18837;46.832;16.838;2023-05-10T09:48:45;16.60;84.10
32366;DHT22;18837;46.832;16.838;2023-05-10T09:51:19;16.60;83.60
32366;DHT22;18837;46.832;16.838;2023-05-10T09:53:45;16.60;83.90
32366;DHT22;18837;46.832;16.838;2023-05-10T09:56:11;16.70;84.30
32366;DHT22;18837;46.832;16.838;2023-05-10T09:58:37;16.60;83.40
32366;DHT22;18837;46.832;16.838;2023-05-10T10:03:42;16.60;83.50
32366;DHT22;18837;46.832;16.838;2023-05-10T10:06:08;16.60;84.20
32366;DHT22;18837;46.832;16.838;2023-05-10T10:08:34;16.60;83.80
32366;DHT22;18837;46.832;16.838;2023-05-10T10:11:00;16.70;83.80
32366;DHT22;18837;46.832;16.838;2023-05-10T10:13:26;16.70;83.70
32366;DHT22;18837;46.832;16.838;2023-05-10T10:16:02;16.70;83.90
32366;DHT22;18837;46.832;16.838;2023-05-10T10:18:53;16.80;84.50
32366;DHT22;18837;46.832;16.838;2023-05-10T10:21:34;16.80;83.30
32366;DHT22;18837;46.832;16.838;2023-05-10T10:24:00;16.80;83.90
32366;DHT22;18837;46.832;16.838;2023-05-10T10:26:26;16.80;83.70
32366;DHT22;18837;46.832;16.838;2023-05-10T10:29:17;16.80;83.40
32366;DHT22;18837;46.832;16.838;2023-05-10T10:32:06;16.90;84.30
32366;DHT22;18837;46.832;16.838;2023-05-10T10:34:33;16.80;83.80
32366;DHT22;18837;46.832;16.838;2023-05-10T10:37:04;16.90;82.30
32366;DHT22;18837;46.832;16.838;2023-05-10T10:39:31;16.80;83.10
32366;DHT22;18837;46.832;16.838;2023-05-10T10:41:58;16.90;84.20
32366;DHT22;18837;46.832;16.838;2023-05-10T10:52:46;16.90;80.90
32366;DHT22;18837;46.832;16.838;2023-05-10T10:55:35;16.90;79.90
32366;DHT22;18837;46.832;16.838;2023-05-10T10:58:10;16.90;82.30
32366;DHT22;18837;46.832;16.838;2023-05-10T11:00:37;16.90;81.60
32366;DHT22;18837;46.832;16.838;2023-05-10T11:03:08;16.90;80.10
32366;DHT22;18837;46.832;16.838;2023-05-10T11:19:04;17.00;81.30
32366;DHT22;18837;46.832;16.838;2023-05-10T11:21:31;17.00;80.10
32366;DHT22;18837;46.832;16.838;2023-05-10T11:23:59;17.10;81.70
32366;DHT22;18837;46.832;16.838;2023-05-10T11:26:37;17.10;82.40
32366;DHT22;18837;46.832;16.838;2023-05-10T11:29:18;17.10;83.30
32366;DHT22;18837;46.832;16.838;2023-05-10T11:31:46;17.20;83.90
32366;DHT22;18837;46.832;16.838;2023-05-10T11:34:33;17.30;85.70
32366;DHT22;18837;46.832;16.838;2023-05-10T11:36:59;17.30;84.10
32366;DHT22;18837;46.832;16.838;2023-05-10T11:39:27;17.40;84.20
32366;DHT22;18837;46.832;16.838;2023-05-10T11:41:53;17.40;85.20
32366;DHT22;18837;46.832;16.838;2023-05-10T11:44:45;17.50;86.00
32366;DHT22;18837;46.832;16.838;2023-05-10T11:47:12;17.60;87.00
32366;DHT22;18837;46.832;16.838;2023-05-10T11:49:37;17.70;85.90
32366;DHT22;18837;46.832;16.838;2023-05-10T11:52:07;17.70;85.80
32366;DHT22;18837;46.832;16.838;2023-05-10T11:54:33;17.80;85.60
32366;DHT22;18837;46.832;16.838;2023-05-10T11:57:00;17.80;84.70
32366;DHT22;18837;46.832;16.838;2023-05-10T11:59:54;17.90;83.10
32366;DHT22;18837;46.832;16.838;2023-05-10T12:02:57;17.90;81.50
32366;DHT22;18837;46.832;16.838;2023-05-10T12:05:26;17.90;80.50
32366;DHT22;18837;46.832;16.838;2023-05-10T12:07:52;17.90;82.10
32366;DHT22;18837;46.832;16.838;2023-05-10T12:10:25;17.80;82.30
32366;DHT22;18837;46.832;16.838;2023-05-10T12:12:52;17.90;80.80
32366;DHT22;18837;46.832;16.838;2023-05-10T12:15:19;17.80;80.60
32366;DHT22;18837;46.832;16.838;2023-05-10T12:17:47;17.80;84.10
32366;DHT22;18837;46.832;16.838;2023-05-10T12:20:20;17.90;83.30
32366;DHT22;18837;46.832;16.838;2023-05-10T12:22:51;17.90;85.70
32366;DHT22;18837;46.832;16.838;2023-05-10T12:25:18;18.00;83.00
32366;DHT22;18837;46.832;16.838;2023-05-10T12:27:56;18.00;84.10
32366;DHT22;18837;46.832;16.838;2023-05-10T12:30:27;18.10;84.50
32366;DHT22;18837;46.832;16.838;2023-05-10T12:32:54;18.10;81.90
32366;DHT22;18837;46.832;16.838;2023-05-10T12:38:59;18.20;77.50
32366;DHT22;18837;46.832;16.838;2023-05-10T12:41:27;18.10;76.30
32366;DHT22;18837;46.832;16.838;2023-05-10T12:43:53;18.10;78.70
32366;DHT22;18837;46.832;16.838;2023-05-10T12:46:19;18.10;79.30
32366;DHT22;18837;46.832;16.838;2023-05-10T12:48:45;18.10;80.30
32366;DHT22;18837;46.832;16.838;2023-05-10T12:51:11;18.10;79.90
32366;DHT22;18837;46.832;16.838;2023-05-10T12:53:49;18.10;82.10
32366;DHT22;18837;46.832;16.838;2023-05-10T12:56:15;18.10;79.70
32366;DHT22;18837;46.832;16.838;2023-05-10T12:58:41;18.10;80.40
32366;DHT22;18837;46.832;16.838;2023-05-10T13:01:06;18.10;79.10
32366;DHT22;18837;46.832;16.838;2023-05-10T13:03:33;18.10;78.30
32366;DHT22;18837;46.832;16.838;2023-05-10T13:05:59;18.10;79.20
32366;DHT22;18837;46.832;16.838;2023-05-10T13:12:08;18.10;80.60
32366;DHT22;18837;46.832;16.838;2023-05-10T13:14:36;18.10;78.40
32366;DHT22;18837;46.832;16.838;2023-05-10T13:17:01;18.10;79.70
32366;DHT22;18837;46.832;16.838;2023-05-10T13:19:27;18.20;77.80
32366;DHT22;18837;46.832;16.838;2023-05-10T13:21:53;18.20;78.50
32366;DHT22;18837;46.832;16.838;2023-05-10T13:24:18;18.30;78.70
32366;DHT22;18837;46.832;16.838;2023-05-10T13:26:44;18.40;79.30
32366;DHT22;18837;46.832;16.838;2023-05-10T13:29:16;18.40;80.50
32366;DHT22;18837;46.832;16.838;2023-05-10T13:31:43;18.50;80.80
32366;DHT22;18837;46.832;16.838;2023-05-10T13:34:09;18.60;82.40
32366;DHT22;18837;46.832;16.838;2023-05-10T13:36:35;18.70;82.60
32366;DHT22;18837;46.832;16.838;2023-05-10T13:39:01;18.80;82.80
32366;DHT22;18837;46.832;16.838;2023-05-10T13:41:28;18.80;83.00
32366;DHT22;18837;46.832;16.838;2023-05-10T13:44:11;18.90;83.40
32366;DHT22;18837;46.832;16.838;2023-05-10T13:49:50;19.00;78.80
32366;DHT22;18837;46.832;16.838;2023-05-10T13:52:16;19.00;78.90
32366;DHT22;18837;46.832;16.838;2023-05-10T13:54:44;19.00;78.60
32366;DHT22;18837;46.832;16.838;2023-05-10T13:57:09;19.00;78.20
32366;DHT22;18837;46.832;16.838;2023-05-10T13:59:38;19.00;77.90
32366;DHT22;18837;46.832;16.838;2023-05-10T14:02:03;19.10;76.40
32366;DHT22;18837;46.832;16.838;2023-05-10T14:04:29;19.10;76.50
32366;DHT22;18837;46.832;16.838;2023-05-10T14:06:56;19.00;75.90
32366;DHT22;18837;46.832;16.838;2023-05-10T14:09:22;19.00;77.50
32366;DHT22;18837;46.832;16.838;2023-05-10T14:11:48;19.00;77.60
32366;DHT22;18837;46.832;16.838;2023-05-10T14:14:14;19.00;75.90
32366;DHT22;18837;46.832;16.838;2023-05-10T14:16:43;19.00;76.80
32366;DHT22;18837;46.832;16.838;2023-05-10T14:19:31;19.00;77.70
32366;DHT22;18837;46.832;16.838;2023-05-10T14:22:11;19.10;75.70
32366;DHT22;18837;46.832;16.838;2023-05-10T14:24:38;19.10;77.20
32366;DHT22;18837;46.832;16.838;2023-05-10T14:27:03;19.10;75.80
32366;DHT22;18837;46.832;16.838;2023-05-10T14:29:29;19.10;76.30
32366;DHT22;18837;46.832;16.838;2023-05-10T14:31:55;19.20;76.50
32366;DHT22;18837;46.832;16.838;2023-05-10T14:34:21;19.30;77.20
32366;DHT22;18837;46.832;16.838;2023-05-10T14:36:53;19.30;77.50
32366;DHT22;18837;46.832;16.838;2023-05-10T14:39:18;19.40;76.10
32366;DHT22;18837;46.832;16.838;2023-05-10T14:41:44;19.40;76.20
32366;DHT22;18837;46.832;16.838;2023-05-10T14:44:11;19.40;77.30
32366;DHT22;18837;46.832;16.838;2023-05-10T14:46:37;19.40;76.90
32366;DHT22;18837;46.832;16.838;2023-05-10T14:49:03;19.40;76.00
32366;DHT22;18837;46.832;16.838;2023-05-10T14:51:29;19.40;75.50
32366;DHT22;18837;46.832;16.838;2023-05-10T14:57:04;19.40;76.70
32366;DHT22;18837;46.832;16.838;2023-05-10T14:59:29;19.40;77.90
32366;DHT22;18837;46.832;16.838;2023-05-10T15:01:55;19.40;77.10
32366;DHT22;18837;46.832;16.838;2023-05-10T15:04:21;19.40;78.00
32366;DHT22;18837;46.832;16.838;2023-05-10T15:06:46;19.40;77.80
32366;DHT22;18837;46.832;16.838;2023-05-10T15:09:12;19.40;76.80
32366;DHT22;18837;46.832;16.838;2023-05-10T15:11:48;19.40;77.40
32366;DHT22;18837;46.832;16.838;2023-05-10T15:14:14;19.40;77.50
32366;DHT22;18837;46.832;16.838;2023-05-10T15:16:39;19.40;76.50
32366;DHT22;18837;46.832;16.838;2023-05-10T15:19:05;19.40;76.10
32366;DHT22;18837;46.832;16.838;2023-05-10T15:21:31;19.50;75.40
32366;DHT22;18837;46.832;16.838;2023-05-10T15:24:03;19.50;75.70
32366;DHT22;18837;46.832;16.838;2023-05-10T15:26:28;19.50;76.30
32366;DHT22;18837;46.832;16.838;2023-05-10T15:29:18;19.50;76.30
32366;DHT22;18837;46.832;16.838;2023-05-10T15:32:04;19.50;76.90
32366;DHT22;18837;46.832;16.838;2023-05-10T15:34:29;19.40;78.30
32366;DHT22;18837;46.832;16.838;2023-05-10T15:36:57;19.40;78.70
32366;DHT22;18837;46.832;16.838;2023-05-10T15:39:23;19.30;78.50
32366;DHT22;18837;46.832;16.838;2023-05-10T15:41:49;19.30;77.50
32366;DHT22;18837;46.832;16.838;2023-05-10T15:44:14;19.20;76.80
32366;DHT22;18837;46.832;16.838;2023-05-10T15:46:56;19.10;76.00
32366;DHT22;18837;46.832;16.838;2023-05-10T15:49:22;19.10;77.20
32366;DHT22;18837;46.832;16.838;2023-05-10T15:51:47;19.10;77.60
32366;DHT22;18837;46.832;16.838;2023-05-10T15:54:13;19.10;77.50
32366;DHT22;18837;46.832;16.838;2023-05-10T15:56:39;19.10;77.60
32366;DHT22;18837;46.832;16.838;2023-05-10T15:59:05;19.10;77.70
32366;DHT22;18837;46.832;16.838;2023-05-10T16:02:04;19.00;76.90
32366;DHT22;18837;46.832;16.838;2023-05-10T16:08:06;18.90;72.30
32366;DHT22;18837;46.832;16.838;2023-05-10T16:10:32;18.90;74.30
32366;DHT22;18837;46.832;16.838;2023-05-10T16:12:57;18.90;74.90
32366;DHT22;18837;46.832;16.838;2023-05-10T16:15:23;18.80;74.20
32366;DHT22;18837;46.832;16.838;2023-05-10T16:17:49;18.80;74.40
32366;DHT22;18837;46.832;16.838;2023-05-10T16:20:15;18.80;76.00
32366;DHT22;18837;46.832;16.838;2023-05-10T16:23:06;18.80;76.50
32366;DHT22;18837;46.832;16.838;2023-05-10T16:25:32;18.80;76.90
32366;DHT22;18837;46.832;16.838;2023-05-10T16:27:58;18.80;76.80